createdAt,value
2019-02-23T00:00:45.238Z,5.60
2019-02-23T00:01:45.219Z,5.20
2019-02-23T00:02:45.210Z,5.70
2019-02-23T00:03:45.227Z,6.10
2019-02-23T00:04:45.212Z,5.80
2019-02-23T00:05:45.182Z,6.10
2019-02-23T00:06:45.192Z,5.90
2019-02-23T00:07:45.165Z,6.30
2019-02-23T00:08:45.172Z,5.70
2019-02-23T00:09:45.142Z,5.60
2019-02-23T00:10:45.132Z,6.10
2019-02-23T00:11:45.121Z,5.60
2019-02-23T00:12:45.128Z,5.10
2019-02-23T00:13:45.093Z,5.30
2019-02-23T00:14:45.081Z,5.00
2019-02-23T00:15:45.086Z,5.40
2019-02-23T00:16:45.078Z,5.10
2019-02-23T00:17:45.085Z,5.30
2019-02-23T00:18:45.064Z,5.80
2019-02-23T00:19:45.066Z,5.30
2019-02-23T00:20:45.022Z,5.40
2019-02-23T00:21:45.026Z,5.70
2019-02-23T00:22:45.024Z,6.30
2019-02-23T00:23:45.001Z,6.00
2019-02-23T00:24:45.009Z,6.00
2019-02-23T00:25:44.973Z,6.00
2019-02-23T00:26:44.962Z,5.70
2019-02-23T00:27:44.958Z,5.70
2019-02-23T00:28:44.948Z,5.70
2019-02-23T00:29:44.939Z,6.10
2019-02-23T00:30:44.949Z,6.00
2019-02-23T00:31:44.911Z,6.20
2019-02-23T00:32:44.898Z,6.40
2019-02-23T00:33:44.888Z,6.90
2019-02-23T00:34:44.899Z,6.70
2019-02-23T00:35:44.894Z,5.80
2019-02-23T00:36:44.874Z,6.30
2019-02-23T00:37:44.851Z,6.10
2019-02-23T00:38:44.838Z,5.60
2019-02-23T00:39:44.834Z,5.60
2019-02-23T00:40:44.858Z,5.70
2019-02-23T00:41:44.851Z,5.60
2019-02-23T00:42:44.820Z,5.70
2019-02-23T00:43:44.786Z,5.50
2019-02-23T00:44:44.776Z,5.40
2019-02-23T00:45:44.767Z,5.20
2019-02-23T00:46:44.757Z,6.40
2019-02-23T00:47:44.786Z,5.40
2019-02-23T00:48:44.763Z,5.80
2019-02-23T00:49:44.731Z,5.40
2019-02-23T00:50:44.722Z,5.80
2019-02-23T00:51:44.704Z,5.60
2019-02-23T00:52:44.739Z,5.70
2019-02-23T00:53:44.771Z,6.20
2019-02-23T00:54:44.691Z,6.00
2019-02-23T00:55:44.663Z,5.20
2019-02-23T00:56:44.673Z,6.00
2019-02-23T00:57:44.665Z,5.70
2019-02-23T00:58:44.635Z,6.00
2019-02-23T00:59:44.640Z,5.40
2019-02-23T01:00:44.624Z,6.10
2019-02-23T01:01:44.611Z,6.00
2019-02-23T01:02:44.618Z,6.10
2019-02-23T01:03:44.582Z,6.00
2019-02-23T01:04:44.575Z,5.90
2019-02-23T01:05:44.571Z,5.50
2019-02-23T01:06:44.550Z,5.20
2019-02-23T01:07:44.583Z,5.50
2019-02-23T01:08:45.304Z,5.50
2019-02-23T01:09:44.525Z,5.60
2019-02-23T01:10:44.510Z,5.90
2019-02-23T01:11:44.507Z,5.70
2019-02-23T01:12:44.515Z,5.80
2019-02-23T01:13:44.520Z,5.50
2019-02-23T01:14:44.483Z,5.80
2019-02-23T01:15:44.463Z,6.00
2019-02-23T01:16:44.448Z,5.60
2019-02-23T01:17:44.442Z,5.60
2019-02-23T01:18:44.451Z,5.70
2019-02-23T01:19:47.722Z,5.70
2019-02-23T01:20:44.418Z,5.30
2019-02-23T01:21:44.410Z,4.80
2019-02-23T01:22:44.392Z,5.20
2019-02-23T01:23:44.490Z,5.60
2019-02-23T01:24:44.389Z,5.50
2019-02-23T01:25:44.365Z,5.30
2019-02-23T01:26:44.352Z,5.30
2019-02-23T01:27:44.344Z,5.40
2019-02-23T01:28:44.349Z,5.30
2019-02-23T01:29:44.329Z,5.50
2019-02-23T01:30:44.307Z,5.40
2019-02-23T01:31:44.340Z,5.20
2019-02-23T01:32:44.292Z,5.60
2019-02-23T01:33:44.286Z,5.10
2019-02-23T01:34:44.270Z,5.50
2019-02-23T01:35:44.262Z,5.40
2019-02-23T01:36:44.243Z,5.70
2019-02-23T01:37:44.256Z,5.70
2019-02-23T01:38:44.224Z,5.20
2019-02-23T01:39:44.232Z,5.50
2019-02-23T01:40:44.234Z,5.40
2019-02-23T01:41:44.207Z,5.60
2019-02-23T01:42:44.213Z,5.40
2019-02-23T01:43:44.218Z,5.20
2019-02-23T01:44:44.191Z,5.80
2019-02-23T01:45:44.158Z,5.10
2019-02-23T01:46:44.151Z,5.30
2019-02-23T01:47:44.180Z,5.90
2019-02-23T01:48:44.122Z,5.10
2019-02-23T01:49:44.113Z,5.80
2019-02-23T01:50:44.104Z,5.50
2019-02-23T01:51:44.107Z,5.50
2019-02-23T01:52:44.088Z,5.20
2019-02-23T01:53:44.095Z,4.90
2019-02-23T01:54:44.069Z,5.10
2019-02-23T01:55:44.052Z,5.20
2019-02-23T01:56:44.038Z,4.90
2019-02-23T01:57:44.060Z,5.60
2019-02-23T01:58:44.053Z,5.10
2019-02-23T01:59:44.012Z,5.30
2019-02-23T02:00:44.004Z,5.30
2019-02-23T02:01:43.987Z,5.40
2019-02-23T02:02:43.977Z,5.50
2019-02-23T02:03:43.973Z,5.40
2019-02-23T02:04:43.995Z,5.50
2019-02-23T02:05:43.957Z,5.20
2019-02-23T02:06:43.944Z,5.20
2019-02-23T02:07:43.927Z,5.60
2019-02-23T02:08:43.922Z,5.80
2019-02-23T02:09:43.934Z,5.30
2019-02-23T02:10:43.895Z,5.40
2019-02-23T02:11:43.895Z,5.10
2019-02-23T02:12:43.884Z,5.50
2019-02-23T02:13:43.878Z,5.50
2019-02-23T02:14:43.853Z,5.00
2019-02-23T02:15:43.870Z,5.70
2019-02-23T02:16:43.844Z,5.20
2019-02-23T02:17:43.845Z,5.40
2019-02-23T02:18:43.844Z,5.00
2019-02-23T02:19:43.803Z,5.40
2019-02-23T02:20:43.825Z,5.70
2019-02-23T02:21:43.803Z,5.60
2019-02-23T02:22:43.782Z,5.60
2019-02-23T02:23:43.795Z,5.20
2019-02-23T02:24:43.759Z,5.90
2019-02-23T02:25:43.803Z,5.70
2019-02-23T02:26:43.738Z,5.30
2019-02-23T02:27:43.750Z,5.60
2019-02-23T02:28:43.711Z,5.50
2019-02-23T02:29:43.714Z,5.10
2019-02-23T02:30:43.697Z,6.00
2019-02-23T02:31:43.704Z,5.40
2019-02-23T02:32:43.704Z,6.00
2019-02-23T02:33:43.665Z,5.90
2019-02-23T02:34:43.664Z,5.90
2019-02-23T02:35:43.660Z,5.50
2019-02-23T02:36:43.661Z,5.40
2019-02-23T02:37:43.627Z,5.50
2019-02-23T02:38:43.620Z,5.80
2019-02-23T02:39:43.604Z,5.70
2019-02-23T02:40:43.600Z,6.10
2019-02-23T02:41:43.636Z,5.70
2019-02-23T02:42:43.606Z,5.40
2019-02-23T02:43:43.582Z,6.00
2019-02-23T02:44:43.557Z,6.10
2019-02-23T02:45:43.550Z,6.40
2019-02-23T02:46:43.533Z,6.00
2019-02-23T02:47:43.553Z,6.10
2019-02-23T02:48:43.514Z,5.80
2019-02-23T02:49:43.506Z,5.90
2019-02-23T02:50:43.499Z,5.60
2019-02-23T02:51:43.485Z,6.10
2019-02-23T02:52:43.480Z,6.10
2019-02-23T02:53:43.480Z,5.90
2019-02-23T02:54:43.447Z,6.10
2019-02-23T02:55:43.450Z,6.70
2019-02-23T02:56:43.434Z,6.10
2019-02-23T02:57:43.429Z,6.20
2019-02-23T02:58:43.441Z,6.30
2019-02-23T02:59:43.427Z,6.00
2019-02-23T03:00:43.384Z,6.10
2019-02-23T03:01:43.384Z,6.00
2019-02-23T03:02:43.387Z,6.20
2019-02-23T03:03:43.356Z,5.70
2019-02-23T03:04:43.377Z,5.60
2019-02-23T03:05:43.338Z,6.30
2019-02-23T03:06:43.329Z,6.00
2019-02-23T03:07:43.320Z,5.60
2019-02-23T03:08:43.315Z,6.10
2019-02-23T03:09:43.310Z,6.80
2019-02-23T03:10:43.326Z,5.90
2019-02-23T03:11:43.290Z,6.10
2019-02-23T03:12:43.264Z,6.40
2019-02-23T03:13:43.272Z,6.80
2019-02-23T03:14:43.261Z,5.70
2019-02-23T03:15:43.244Z,6.70
2019-02-23T03:16:43.264Z,6.10
2019-02-23T03:17:43.232Z,6.40
2019-02-23T03:18:43.218Z,6.10
2019-02-23T03:19:43.204Z,6.70
2019-02-23T03:20:43.189Z,6.80
2019-02-23T03:21:43.209Z,6.20
2019-02-23T03:22:43.175Z,6.60
2019-02-23T03:23:43.154Z,6.70
2019-02-23T03:24:43.169Z,7.20
2019-02-23T03:25:43.130Z,6.30
2019-02-23T03:26:43.155Z,6.60
2019-02-23T03:27:43.117Z,6.10
2019-02-23T03:28:43.107Z,6.70
2019-02-23T03:29:43.098Z,7.10
2019-02-23T03:30:43.116Z,6.40
2019-02-23T03:31:43.069Z,6.60
2019-02-23T03:32:43.092Z,6.40
2019-02-23T03:33:43.127Z,6.40
2019-02-23T03:34:43.054Z,6.40
2019-02-23T03:35:43.043Z,6.70
2019-02-23T03:36:43.019Z,7.00
2019-02-23T03:37:43.036Z,6.60
2019-02-23T03:38:43.809Z,6.90
2019-02-23T03:39:42.999Z,6.50
2019-02-23T03:40:42.993Z,6.90
2019-02-23T03:41:42.977Z,6.90
2019-02-23T03:42:42.964Z,6.60
2019-02-23T03:43:42.966Z,6.80
2019-02-23T03:44:42.938Z,6.70
2019-02-23T03:45:42.933Z,7.00
2019-02-23T03:46:42.919Z,6.80
2019-02-23T03:47:42.913Z,6.90
2019-02-23T03:48:42.920Z,6.90
2019-02-23T03:49:42.898Z,6.70
2019-02-23T03:50:49.087Z,7.30
2019-02-23T03:51:44.030Z,6.80
2019-02-23T03:52:42.870Z,6.70
2019-02-23T03:53:42.866Z,6.80
2019-02-23T03:54:42.842Z,7.20
2019-02-23T03:55:42.827Z,6.70
2019-02-23T03:56:42.834Z,6.90
2019-02-23T03:57:42.808Z,6.70
2019-02-23T03:58:42.801Z,7.00
2019-02-23T03:59:42.809Z,7.30
2019-02-23T04:00:42.789Z,6.70
2019-02-23T04:01:42.789Z,7.80
2019-02-23T04:02:42.761Z,7.80
2019-02-23T04:03:42.749Z,7.50
2019-02-23T04:04:42.738Z,6.50
2019-02-23T04:05:42.731Z,7.60
2019-02-23T04:06:42.750Z,7.60
2019-02-23T04:07:42.711Z,7.20
2019-02-23T04:08:42.693Z,6.60
2019-02-23T04:09:42.680Z,7.40
2019-02-23T04:10:42.675Z,7.40
2019-02-23T04:11:42.715Z,7.30
2019-02-23T04:12:42.659Z,7.00
2019-02-23T04:13:43.299Z,7.20
2019-02-23T04:14:42.637Z,7.20
2019-02-23T04:15:42.626Z,7.50
2019-02-23T04:16:42.613Z,7.40
2019-02-23T04:17:42.621Z,7.40
2019-02-23T04:18:42.616Z,7.10
2019-02-23T04:19:42.619Z,7.90
2019-02-23T04:20:42.580Z,6.80
2019-02-23T04:21:42.562Z,6.90
2019-02-23T04:22:42.570Z,7.40
2019-02-23T04:23:42.572Z,6.80
2019-02-23T04:24:42.543Z,7.40
2019-02-23T04:25:42.525Z,7.80
2019-02-23T04:26:42.521Z,7.50
2019-02-23T04:27:42.499Z,7.70
2019-02-23T04:28:42.516Z,7.40
2019-02-23T04:29:42.487Z,7.20
2019-02-23T04:30:42.471Z,8.10
2019-02-23T04:31:42.467Z,7.70
2019-02-23T04:32:42.457Z,7.60
2019-02-23T04:33:42.476Z,8.00
2019-02-23T04:34:42.454Z,7.50
2019-02-23T04:35:42.420Z,7.50
2019-02-23T04:36:42.444Z,7.50
2019-02-23T04:37:42.407Z,7.50
2019-02-23T04:38:43.310Z,7.40
2019-02-23T04:39:42.406Z,7.30
2019-02-23T04:40:42.370Z,7.70
2019-02-23T04:41:42.357Z,7.70
2019-02-23T04:42:42.346Z,7.80
2019-02-23T04:43:44.205Z,7.60
2019-02-23T04:44:42.844Z,7.70
2019-02-23T04:45:42.352Z,7.80
2019-02-23T04:46:42.319Z,7.70
2019-02-23T04:47:42.299Z,7.30
2019-02-23T04:48:42.285Z,7.70
2019-02-23T04:49:42.309Z,7.30
2019-02-23T04:50:42.270Z,7.60
2019-02-23T04:51:42.266Z,7.70
2019-02-23T04:52:42.308Z,7.80
2019-02-23T04:53:42.237Z,7.70
2019-02-23T04:54:42.226Z,7.20
2019-02-23T04:55:42.239Z,7.70
2019-02-23T04:56:42.223Z,7.70
2019-02-23T04:57:42.201Z,7.90
2019-02-23T04:58:42.197Z,8.20
2019-02-23T04:59:42.172Z,8.40
2019-02-23T05:00:44.959Z,7.50
2019-02-23T05:01:42.154Z,7.70
2019-02-23T05:02:42.151Z,8.00
2019-02-23T05:03:42.141Z,7.40
2019-02-23T05:04:42.143Z,8.10
2019-02-23T05:05:42.122Z,7.90
2019-02-23T05:06:42.148Z,7.50
2019-02-23T05:07:42.092Z,8.10
2019-02-23T05:08:42.093Z,7.40
2019-02-23T05:09:42.084Z,8.10
2019-02-23T05:10:42.106Z,8.20
2019-02-23T05:11:42.055Z,7.40
2019-02-23T05:12:42.063Z,7.90
2019-02-23T05:13:42.030Z,7.80
2019-02-23T05:14:42.031Z,8.00
2019-02-23T05:15:42.037Z,8.00
2019-02-23T05:16:42.013Z,7.90
2019-02-23T05:17:42.060Z,8.10
2019-02-23T05:18:41.988Z,7.90
2019-02-23T05:19:41.969Z,7.80
2019-02-23T05:20:41.971Z,8.10
2019-02-23T05:21:41.950Z,8.10
2019-02-23T05:22:41.952Z,8.00
2019-02-23T05:23:41.961Z,8.10
2019-02-23T05:24:41.930Z,8.20
2019-02-23T05:25:41.908Z,7.80
2019-02-23T05:26:41.902Z,8.60
2019-02-23T05:27:41.905Z,8.00
2019-02-23T05:28:41.914Z,7.90
2019-02-23T05:29:41.879Z,8.90
2019-02-23T05:30:41.872Z,7.90
2019-02-23T05:31:41.847Z,8.00
2019-02-23T05:32:41.839Z,8.10
2019-02-23T05:33:41.830Z,8.10
2019-02-23T05:34:41.835Z,8.80
2019-02-23T05:35:41.816Z,8.50
2019-02-23T05:36:41.804Z,8.00
2019-02-23T05:37:41.793Z,9.00
2019-02-23T05:38:41.783Z,8.50
2019-02-23T05:39:41.783Z,8.30
2019-02-23T05:40:41.762Z,8.30
2019-02-23T05:41:41.753Z,8.50
2019-02-23T05:42:41.740Z,8.80
2019-02-23T05:43:41.723Z,8.90
2019-02-23T05:44:41.733Z,8.10
2019-02-23T05:45:41.738Z,8.60
2019-02-23T05:46:41.706Z,9.10
2019-02-23T05:47:41.693Z,8.20
2019-02-23T05:48:41.678Z,8.50
2019-02-23T05:49:41.668Z,8.80
2019-02-23T05:50:41.690Z,8.30
2019-02-23T05:51:41.648Z,8.10
2019-02-23T05:52:41.642Z,8.40
2019-02-23T05:53:41.627Z,8.30
2019-02-23T05:54:41.612Z,8.40
2019-02-23T05:55:41.610Z,8.50
2019-02-23T05:56:41.620Z,8.20
2019-02-23T05:57:41.589Z,8.50
2019-02-23T05:58:41.649Z,8.20
2019-02-23T05:59:41.570Z,8.50
2019-02-23T06:00:41.559Z,8.50
2019-02-23T06:01:41.569Z,8.20
2019-02-23T06:02:44.743Z,9.00
2019-02-23T06:03:41.519Z,8.60
2019-02-23T06:04:41.527Z,8.10
2019-02-23T06:05:41.505Z,8.50
2019-02-23T06:06:41.530Z,8.70
2019-02-23T06:07:41.518Z,8.60
2019-02-23T06:08:41.479Z,9.10
2019-02-23T06:09:41.472Z,9.10
2019-02-23T06:10:41.464Z,9.20
2019-02-23T06:11:41.455Z,9.10
2019-02-23T06:12:41.448Z,8.70
2019-02-23T06:13:41.428Z,8.90
2019-02-23T06:14:41.419Z,8.70
2019-02-23T06:15:41.395Z,8.60
2019-02-23T06:16:41.403Z,8.80
2019-02-23T06:17:41.445Z,8.50
2019-02-23T06:18:41.363Z,8.70
2019-02-23T06:19:41.363Z,8.90
2019-02-23T06:20:41.353Z,8.10
2019-02-23T06:21:52.881Z,8.60
2019-02-23T06:22:42.352Z,8.00
2019-02-23T06:23:41.313Z,8.50
2019-02-23T06:24:41.319Z,8.80
2019-02-23T06:25:41.291Z,8.30
2019-02-23T06:26:41.289Z,8.90
2019-02-23T06:27:41.321Z,8.50
2019-02-23T06:28:41.278Z,8.80
2019-02-23T06:29:41.255Z,8.60
2019-02-23T06:30:41.243Z,9.40
2019-02-23T06:31:41.239Z,8.80
2019-02-23T06:32:41.253Z,8.80
2019-02-23T06:33:41.277Z,8.60
2019-02-23T06:34:41.219Z,8.80
2019-02-23T06:35:41.195Z,8.80
2019-02-23T06:36:41.182Z,9.00
2019-02-23T06:37:41.180Z,9.00
2019-02-23T06:38:41.169Z,8.80
2019-02-23T06:39:41.183Z,9.20
2019-02-23T06:40:41.155Z,8.80
2019-02-23T06:41:41.144Z,9.30
2019-02-23T06:42:41.133Z,9.10
2019-02-23T06:43:41.111Z,9.00
2019-02-23T06:44:41.125Z,9.60
2019-02-23T06:45:41.164Z,8.90
2019-02-23T06:46:41.096Z,8.60
2019-02-23T06:47:41.071Z,9.00
2019-02-23T06:48:41.059Z,9.00
2019-02-23T06:49:41.069Z,8.90
2019-02-23T06:50:41.042Z,8.80
2019-02-23T06:51:41.041Z,8.90
2019-02-23T06:52:41.031Z,8.90
2019-02-23T06:53:41.120Z,9.10
2019-02-23T06:54:41.026Z,9.10
2019-02-23T06:55:40.998Z,9.00
2019-02-23T06:56:40.983Z,9.00
2019-02-23T06:57:40.983Z,9.20
2019-02-23T06:58:41.009Z,9.10
2019-02-23T06:59:40.989Z,9.00
2019-02-23T07:00:40.944Z,9.50
2019-02-23T07:01:40.930Z,9.30
2019-02-23T07:02:40.919Z,9.30
2019-02-23T07:03:40.923Z,9.30
2019-02-23T07:04:40.906Z,9.50
2019-02-23T07:05:40.933Z,8.90
2019-02-23T07:06:40.884Z,8.90
2019-02-23T07:07:40.874Z,9.00
2019-02-23T07:08:40.855Z,9.70
2019-02-23T07:09:40.851Z,9.10
2019-02-23T07:10:40.840Z,9.40
2019-02-23T07:11:40.862Z,9.60
2019-02-23T07:12:40.823Z,9.30
2019-02-23T07:13:40.811Z,9.90
2019-02-23T07:14:40.804Z,10.20
2019-02-23T07:15:40.802Z,9.60
2019-02-23T07:16:40.839Z,9.30
2019-02-23T07:17:40.775Z,9.60
2019-02-23T07:18:40.760Z,9.80
2019-02-23T07:19:40.750Z,10.20
2019-02-23T07:20:44.335Z,9.90
2019-02-23T07:21:40.735Z,9.90
2019-02-23T07:22:40.741Z,9.70
2019-02-23T07:23:40.713Z,10.10
2019-02-23T07:24:40.703Z,10.00
2019-02-23T07:25:40.694Z,10.10
2019-02-23T07:26:40.677Z,9.70
2019-02-23T07:27:40.682Z,10.40
2019-02-23T07:28:40.660Z,10.80
2019-02-23T07:29:40.638Z,10.10
2019-02-23T07:30:40.690Z,10.30
2019-02-23T07:31:40.635Z,10.10
2019-02-23T07:32:40.652Z,10.10
2019-02-23T07:33:40.622Z,10.20
2019-02-23T07:34:40.589Z,10.20
2019-02-23T07:35:40.587Z,10.20
2019-02-23T07:36:40.606Z,10.00
2019-02-23T07:37:40.570Z,9.70
2019-02-23T07:38:40.575Z,10.00
2019-02-23T07:39:40.548Z,10.00
2019-02-23T07:40:40.547Z,9.80
2019-02-23T07:41:40.528Z,9.70
2019-02-23T07:42:40.527Z,9.30
2019-02-23T07:43:40.507Z,9.60
2019-02-23T07:44:40.490Z,9.50
2019-02-23T07:45:40.487Z,10.20
2019-02-23T07:46:40.472Z,9.50
2019-02-23T07:47:40.476Z,9.80
2019-02-23T07:48:40.445Z,9.30
2019-02-23T07:49:40.474Z,10.10
2019-02-23T07:50:40.518Z,10.20
2019-02-23T07:51:40.418Z,9.50
2019-02-23T07:52:40.406Z,10.20
2019-02-23T07:53:40.409Z,9.40
2019-02-23T07:54:40.380Z,9.40
2019-02-23T07:55:40.394Z,10.20
2019-02-23T07:56:40.372Z,9.30
2019-02-23T07:57:40.375Z,10.00
2019-02-23T07:58:40.378Z,9.40
2019-02-23T07:59:40.336Z,9.30
2019-02-23T08:00:40.450Z,9.70
2019-02-23T08:01:40.316Z,9.40
2019-02-23T08:02:40.304Z,8.90
2019-02-23T08:03:40.296Z,9.00
2019-02-23T08:04:40.302Z,9.20
2019-02-23T08:05:40.277Z,9.30
2019-02-23T08:06:40.293Z,9.20
2019-02-23T08:07:40.309Z,9.10
2019-02-23T08:08:40.242Z,9.20
2019-02-23T08:09:40.237Z,9.00
2019-02-23T08:10:40.228Z,8.60
2019-02-23T08:11:40.252Z,9.40
2019-02-23T08:12:40.235Z,9.50
2019-02-23T08:13:40.805Z,8.90
2019-02-23T08:14:40.178Z,9.00
2019-02-23T08:15:40.176Z,9.00
2019-02-23T08:16:40.162Z,9.00
2019-02-23T08:17:40.162Z,9.30
2019-02-23T08:18:40.131Z,8.90
2019-02-23T08:19:40.147Z,9.20
2019-02-23T08:20:40.121Z,9.20
2019-02-23T08:21:40.113Z,9.40
2019-02-23T08:22:40.131Z,8.70
2019-02-23T08:23:40.111Z,8.90
2019-02-23T08:24:40.076Z,8.80
2019-02-23T08:25:40.063Z,9.40
2019-02-23T08:26:40.075Z,9.30
2019-02-23T08:27:40.052Z,9.40
2019-02-23T08:28:40.052Z,9.10
2019-02-23T08:29:40.015Z,8.80
2019-02-23T08:30:40.015Z,10.00
2019-02-23T08:31:39.997Z,9.30
2019-02-23T08:32:39.993Z,9.00
2019-02-23T08:33:40.008Z,9.40
2019-02-23T08:34:39.970Z,8.90
2019-02-23T08:35:39.950Z,9.20
2019-02-23T08:36:39.941Z,8.60
2019-02-23T08:37:39.934Z,9.10
2019-02-23T08:38:39.927Z,9.50
2019-02-23T08:39:39.933Z,8.70
2019-02-23T08:40:39.915Z,8.70
2019-02-23T08:41:40.355Z,8.60
2019-02-23T08:42:39.879Z,8.80
2019-02-23T08:43:39.873Z,9.10
2019-02-23T08:44:39.870Z,8.50
2019-02-23T08:45:39.885Z,8.50
2019-02-23T08:46:39.871Z,8.30
2019-02-23T08:47:39.828Z,9.10
2019-02-23T08:48:39.811Z,9.10
2019-02-23T08:49:39.811Z,8.40
2019-02-23T08:50:39.823Z,8.30
2019-02-23T08:51:39.787Z,8.60
2019-02-23T08:52:48.660Z,8.80
2019-02-23T08:53:40.760Z,8.60
2019-02-23T08:54:40.343Z,8.60
2019-02-23T08:55:39.744Z,8.40
2019-02-23T08:56:39.762Z,8.80
2019-02-23T08:57:39.720Z,8.50
2019-02-23T08:58:39.711Z,8.80
2019-02-23T08:59:39.697Z,8.40
2019-02-23T09:00:39.683Z,8.10
2019-02-23T09:01:39.689Z,8.30
2019-02-23T09:02:39.680Z,8.00
2019-02-23T09:03:39.672Z,7.30
2019-02-23T09:04:39.647Z,8.60
2019-02-23T09:05:39.634Z,8.20
2019-02-23T09:06:39.632Z,8.80
2019-02-23T09:07:39.613Z,7.90
2019-02-23T09:08:39.622Z,8.80
2019-02-23T09:09:39.601Z,8.40
2019-02-23T09:10:39.579Z,8.20
2019-02-23T09:11:39.563Z,8.00
2019-02-23T09:12:39.564Z,7.40
2019-02-23T09:13:39.568Z,7.90
2019-02-23T09:14:39.550Z,8.30
2019-02-23T09:15:39.529Z,7.90
2019-02-23T09:16:39.515Z,8.10
2019-02-23T09:17:39.542Z,8.20
2019-02-23T09:18:39.495Z,8.20
2019-02-23T09:19:39.492Z,7.70
2019-02-23T09:20:39.500Z,7.60
2019-02-23T09:21:39.457Z,7.90
2019-02-23T09:22:39.469Z,8.10
2019-02-23T09:23:39.441Z,8.00
2019-02-23T09:24:39.432Z,7.30
2019-02-23T09:25:39.414Z,7.10
2019-02-23T09:26:39.419Z,7.10
2019-02-23T09:27:39.472Z,7.40
2019-02-23T09:28:39.403Z,6.30
2019-02-23T09:29:39.379Z,6.70
2019-02-23T09:30:39.370Z,6.70
2019-02-23T09:31:39.364Z,6.00
2019-02-23T09:32:39.347Z,6.50
2019-02-23T09:33:39.348Z,6.60
2019-02-23T09:34:39.319Z,6.80
2019-02-23T09:35:39.312Z,7.00
2019-02-23T09:36:39.309Z,6.60
2019-02-23T09:37:39.340Z,6.90
2019-02-23T09:38:39.320Z,6.90
2019-02-23T09:39:39.266Z,7.00
2019-02-23T09:40:39.256Z,7.40
2019-02-23T09:41:39.261Z,7.10
2019-02-23T09:42:39.242Z,6.70
2019-02-23T09:43:39.224Z,7.00
2019-02-23T09:44:39.232Z,7.00
2019-02-23T09:45:39.210Z,7.20
2019-02-23T09:46:39.195Z,6.70
2019-02-23T09:47:39.195Z,6.60
2019-02-23T09:48:39.207Z,6.80
2019-02-23T09:49:39.176Z,6.40
2019-02-23T09:50:39.153Z,6.50
2019-02-23T09:51:39.144Z,6.80
2019-02-23T09:52:39.127Z,6.70
2019-02-23T09:53:39.118Z,6.60
2019-02-23T09:54:39.130Z,6.70
2019-02-23T09:55:39.106Z,6.40
2019-02-23T09:56:39.089Z,6.40
2019-02-23T09:57:39.088Z,6.10
2019-02-23T09:58:39.078Z,6.10
2019-02-23T09:59:40.194Z,6.20
2019-02-23T10:00:39.082Z,6.10
2019-02-23T10:01:39.038Z,6.60
2019-02-23T10:02:39.027Z,6.20
2019-02-23T10:03:39.016Z,6.00
2019-02-23T10:04:38.999Z,6.10
2019-02-23T10:05:39.007Z,6.00
2019-02-23T10:06:38.978Z,6.10
2019-02-23T10:07:38.972Z,5.70
2019-02-23T10:08:38.965Z,5.80
2019-02-23T10:09:38.957Z,5.80
2019-02-23T10:10:38.954Z,6.10
2019-02-23T10:11:38.934Z,6.00
2019-02-23T10:12:38.946Z,5.80
2019-02-23T10:13:38.904Z,5.50
2019-02-23T10:14:38.895Z,5.80
2019-02-23T10:15:38.902Z,5.80
2019-02-23T10:16:38.887Z,5.80
2019-02-23T10:17:38.862Z,6.10
2019-02-23T10:18:38.843Z,6.30
2019-02-23T10:19:38.843Z,5.50
2019-02-23T10:20:38.861Z,5.40
2019-02-23T10:21:38.817Z,5.40
2019-02-23T10:22:39.767Z,5.60
2019-02-23T10:23:38.790Z,5.80
2019-02-23T10:24:38.783Z,5.60
2019-02-23T10:25:38.769Z,5.80
2019-02-23T10:26:38.779Z,5.80
2019-02-23T10:27:38.774Z,5.40
2019-02-23T10:28:38.756Z,5.30
2019-02-23T10:29:38.732Z,5.30
2019-02-23T10:30:38.721Z,5.80
2019-02-23T10:31:38.735Z,5.70
2019-02-23T10:32:38.703Z,6.80
2019-02-23T10:33:47.368Z,6.00
2019-02-23T10:34:38.696Z,5.60
2019-02-23T10:35:38.666Z,5.20
2019-02-23T10:36:38.680Z,5.20
2019-02-23T10:37:38.646Z,5.80
2019-02-23T10:38:38.630Z,6.20
2019-02-23T10:39:38.628Z,5.40
2019-02-23T10:40:38.628Z,5.40
2019-02-23T10:41:38.604Z,4.80
2019-02-23T10:42:38.627Z,5.30
2019-02-23T10:43:38.578Z,5.30
2019-02-23T10:44:38.566Z,5.40
2019-02-23T10:45:38.562Z,5.10
2019-02-23T10:46:38.570Z,5.50
2019-02-23T10:47:38.538Z,5.40
2019-02-23T10:48:38.544Z,5.50
2019-02-23T10:49:38.518Z,4.90
2019-02-23T10:50:38.519Z,5.20
2019-02-23T10:51:38.501Z,5.20
2019-02-23T10:52:38.487Z,5.60
2019-02-23T10:53:38.499Z,5.20
2019-02-23T10:54:38.465Z,5.70
2019-02-23T10:55:38.448Z,5.70
2019-02-23T10:56:38.440Z,5.50
2019-02-23T10:57:38.428Z,5.70
2019-02-23T10:58:38.453Z,5.50
2019-02-23T10:59:38.415Z,5.30
2019-02-23T11:00:38.400Z,5.30
2019-02-23T11:01:38.385Z,5.70
2019-02-23T11:02:38.377Z,5.60
2019-02-23T11:03:38.380Z,5.70
2019-02-23T11:04:38.399Z,5.70
2019-02-23T11:05:38.355Z,5.70
2019-02-23T11:06:38.583Z,5.90
2019-02-23T11:07:38.324Z,5.40
2019-02-23T11:08:38.335Z,5.30
2019-02-23T11:09:38.311Z,5.50
2019-02-23T11:10:38.313Z,5.30
2019-02-23T11:11:38.287Z,5.70
2019-02-23T11:12:38.276Z,5.20
2019-02-23T11:13:38.266Z,5.50
2019-02-23T11:14:38.255Z,5.20
2019-02-23T11:15:38.263Z,5.30
2019-02-23T11:16:38.238Z,5.40
2019-02-23T11:17:38.228Z,5.20
2019-02-23T11:18:38.210Z,5.20
2019-02-23T11:19:38.201Z,5.60
2019-02-23T11:20:38.184Z,5.10
2019-02-23T11:21:38.200Z,5.30
2019-02-23T11:22:38.164Z,5.80
2019-02-23T11:23:44.251Z,5.30
2019-02-23T11:24:39.148Z,5.40
2019-02-23T11:25:38.141Z,5.30
2019-02-23T11:26:38.156Z,5.80
2019-02-23T11:27:38.111Z,6.00
2019-02-23T11:28:38.100Z,5.70
2019-02-23T11:29:38.126Z,5.90
2019-02-23T11:30:38.075Z,5.90
2019-02-23T11:31:38.113Z,5.70
2019-02-23T11:32:38.058Z,5.70
2019-02-23T11:33:38.050Z,5.80
2019-02-23T11:34:38.036Z,5.90
2019-02-23T11:35:38.038Z,6.20
2019-02-23T11:36:38.018Z,6.40
2019-02-23T11:37:38.044Z,7.10
2019-02-23T11:38:37.996Z,6.30
2019-02-23T11:39:37.988Z,6.10
2019-02-23T11:40:37.978Z,6.40
2019-02-23T11:41:37.970Z,6.40
2019-02-23T11:42:37.948Z,6.20
2019-02-23T11:43:37.966Z,6.40
2019-02-23T11:44:37.937Z,6.60
2019-02-23T11:45:37.932Z,6.30
2019-02-23T11:46:37.917Z,6.40
2019-02-23T11:47:37.896Z,6.70
2019-02-23T11:48:37.929Z,6.70
2019-02-23T11:49:37.950Z,6.50
2019-02-23T11:50:37.874Z,6.60
2019-02-23T11:51:37.879Z,6.30
2019-02-23T11:52:39.472Z,6.40
2019-02-23T11:53:37.832Z,6.30
2019-02-23T11:54:37.854Z,6.50
2019-02-23T11:55:37.837Z,6.80
2019-02-23T11:56:37.826Z,7.50
2019-02-23T11:57:37.826Z,7.60
2019-02-23T11:58:37.789Z,6.60
2019-02-23T11:59:37.802Z,6.20
2019-02-23T12:00:37.774Z,6.50
2019-02-23T12:01:37.751Z,6.80
2019-02-23T12:02:37.736Z,6.60
2019-02-23T12:03:37.745Z,6.50
2019-02-23T12:04:37.732Z,6.20
2019-02-23T12:05:37.737Z,6.50
2019-02-23T12:06:37.703Z,6.40
2019-02-23T12:07:37.706Z,6.90
2019-02-23T12:08:37.684Z,6.70
2019-02-23T12:09:37.684Z,6.40
2019-02-23T12:10:37.665Z,6.90
2019-02-23T12:11:37.680Z,6.50
2019-02-23T12:12:37.649Z,6.70
2019-02-23T12:13:37.626Z,6.90
2019-02-23T12:14:37.616Z,7.00
2019-02-23T12:15:37.608Z,6.50
2019-02-23T12:16:37.647Z,6.60
2019-02-23T12:17:37.659Z,6.70
2019-02-23T12:18:37.576Z,7.00
2019-02-23T12:19:37.595Z,6.80
2019-02-23T12:20:37.552Z,7.10
2019-02-23T12:21:37.587Z,6.80
2019-02-23T12:22:37.546Z,7.30
2019-02-23T12:23:37.520Z,7.10
2019-02-23T12:24:37.513Z,7.00
2019-02-23T12:25:37.501Z,7.20
2019-02-23T12:26:37.493Z,6.70
2019-02-23T12:27:37.516Z,7.30
2019-02-23T12:28:37.472Z,7.00
2019-02-23T12:29:37.461Z,6.70
2019-02-23T12:30:37.451Z,6.70
2019-02-23T12:31:37.439Z,6.90
2019-02-23T12:32:37.448Z,7.40
2019-02-23T12:33:37.408Z,7.30
2019-02-23T12:34:37.397Z,6.90
2019-02-23T12:35:37.395Z,7.00
2019-02-23T12:36:37.390Z,7.20
2019-02-23T12:37:37.363Z,7.70
2019-02-23T12:38:37.390Z,7.20
2019-02-23T12:39:37.382Z,7.60
2019-02-23T12:40:37.349Z,6.80
2019-02-23T12:41:37.333Z,6.90
2019-02-23T12:42:37.320Z,6.40
2019-02-23T12:43:37.335Z,6.30
2019-02-23T12:44:37.294Z,6.50
2019-02-23T12:45:37.284Z,6.00
2019-02-23T12:46:37.282Z,5.80
2019-02-23T12:47:37.269Z,6.00
2019-02-23T12:48:37.264Z,6.20
2019-02-23T12:49:37.286Z,6.10
2019-02-23T12:50:37.240Z,6.30
2019-02-23T12:51:37.225Z,6.70
2019-02-23T12:52:37.235Z,6.30
2019-02-23T12:53:37.219Z,6.50
2019-02-23T12:54:37.200Z,6.70
2019-02-23T12:55:37.193Z,6.50
2019-02-23T12:56:37.161Z,6.40
2019-02-23T12:57:37.157Z,6.00
2019-02-23T12:58:37.143Z,6.20
2019-02-23T12:59:37.244Z,6.20
2019-02-23T13:00:37.168Z,6.30
2019-02-23T13:01:37.122Z,6.60
2019-02-23T13:02:37.103Z,6.70
2019-02-23T13:03:37.094Z,6.50
2019-02-23T13:04:37.080Z,6.50
2019-02-23T13:05:37.095Z,6.30
2019-02-23T13:06:37.055Z,6.10
2019-02-23T13:07:37.050Z,5.90
2019-02-23T13:08:37.040Z,5.80
2019-02-23T13:09:37.107Z,6.30
2019-02-23T13:10:37.058Z,6.10
2019-02-23T13:11:37.137Z,6.40
2019-02-23T13:12:37.000Z,6.40
2019-02-23T13:13:36.984Z,6.70
2019-02-23T13:14:36.978Z,5.80
2019-02-23T13:15:36.958Z,5.40
2019-02-23T13:16:36.964Z,5.90
2019-02-23T13:17:36.931Z,5.70